createdAt,value
2023-03-05T00:01:10.999Z,100334.00
2023-03-05T00:03:38.929Z,100337.00
2023-03-05T00:06:06.928Z,100339.00
2023-03-05T00:08:34.632Z,100339.00
2023-03-05T00:11:03.549Z,100332.00
2023-03-05T00:13:31.481Z,100320.00
2023-03-05T00:15:59.322Z,100330.00
2023-03-05T00:18:26.929Z,100331.00
2023-03-05T00:20:54.816Z,100325.00
2023-03-05T00:23:22.618Z,100316.00
2023-03-05T00:25:50.440Z,100317.00
2023-03-05T00:28:18.228Z,100314.00
2023-03-05T00:30:45.996Z,100313.00
2023-03-05T00:33:13.975Z,100315.00
2023-03-05T00:35:42.524Z,100310.00
2023-03-05T00:38:10.354Z,100315.00
2023-03-05T00:40:38.346Z,100323.00
2023-03-05T00:43:06.265Z,100316.00
2023-03-05T00:45:34.286Z,100317.00
2023-03-05T00:48:02.475Z,100307.00
2023-03-05T00:50:30.208Z,100314.00
2023-03-05T00:52:57.922Z,100307.00
2023-03-05T00:55:25.773Z,100309.00
2023-03-05T00:57:53.638Z,100305.00
2023-03-05T01:00:21.826Z,100297.00
2023-03-05T01:02:49.633Z,100297.00
2023-03-05T01:05:17.500Z,100288.00
2023-03-05T01:07:45.302Z,100291.00
2023-03-05T01:10:13.207Z,100287.00
2023-03-05T01:12:40.841Z,100283.00
2023-03-05T01:15:08.951Z,100284.00
2023-03-05T01:17:36.688Z,100282.00
2023-03-05T01:20:04.878Z,100279.00
2023-03-05T01:22:32.828Z,100277.00
2023-03-05T01:25:00.649Z,100276.00
2023-03-05T01:27:28.421Z,100277.00
2023-03-05T01:29:56.143Z,100262.00
2023-03-05T01:32:25.276Z,100262.00
2023-03-05T01:34:53.020Z,100259.00
2023-03-05T01:37:20.778Z,100256.00
2023-03-05T01:39:48.622Z,100258.00
2023-03-05T01:42:16.549Z,100251.00
2023-03-05T01:44:59.416Z,100236.00
2023-03-05T01:47:27.096Z,100239.00
2023-03-05T01:49:54.880Z,100230.00
2023-03-05T01:52:23.478Z,100225.00
2023-03-05T01:54:52.058Z,100222.00
2023-03-05T01:57:49.025Z,100211.00
2023-03-05T02:00:18.727Z,100212.00
2023-03-05T02:02:47.816Z,100196.00
2023-03-05T02:05:29.712Z,100198.00
2023-03-05T02:07:57.898Z,100200.00
2023-03-05T02:10:28.496Z,100202.00
2023-03-05T02:12:56.957Z,100194.00
2023-03-05T02:15:24.693Z,100189.00
2023-03-05T02:17:52.554Z,100193.00
2023-03-05T02:20:24.052Z,100188.00
2023-03-05T02:22:51.637Z,100186.00
2023-03-05T02:25:23.697Z,100188.00
2023-03-05T02:28:00.178Z,100184.00
2023-03-05T02:30:28.946Z,100186.00
2023-03-05T02:32:56.711Z,100178.00
2023-03-05T02:35:25.585Z,100175.00
2023-03-05T02:37:53.589Z,100180.00
2023-03-05T02:40:21.820Z,100169.00
2023-03-05T02:42:50.191Z,100169.00
2023-03-05T02:45:18.712Z,100174.00
2023-03-05T02:47:46.461Z,100160.00
2023-03-05T02:50:14.202Z,100165.00
2023-03-05T02:52:42.078Z,100163.00
2023-03-05T02:55:14.095Z,100152.00
2023-03-05T02:57:42.652Z,100162.00
2023-03-05T03:00:11.020Z,100158.00
2023-03-05T03:02:39.245Z,100154.00
2023-03-05T03:05:07.554Z,100152.00
2023-03-05T03:07:36.893Z,100151.00
2023-03-05T03:10:05.014Z,100153.00
2023-03-05T03:12:32.719Z,100146.00
2023-03-05T03:15:01.387Z,100144.00
2023-03-05T03:17:29.122Z,100143.00
2023-03-05T03:19:56.828Z,100140.00
2023-03-05T03:22:24.700Z,100136.00
2023-03-05T03:24:52.621Z,100132.00
2023-03-05T03:27:20.479Z,100131.00
2023-03-05T03:29:48.143Z,100125.00
2023-03-05T03:32:15.857Z,100128.00
2023-03-05T03:34:44.774Z,100117.00
2023-03-05T03:37:12.564Z,100115.00
2023-03-05T03:39:40.348Z,100120.00
2023-03-05T03:42:08.195Z,100101.00
2023-03-05T03:44:36.007Z,100103.00
2023-03-05T03:47:03.912Z,100108.00
2023-03-05T03:49:31.694Z,100098.00
2023-03-05T03:51:59.583Z,100106.00
2023-03-05T03:54:27.466Z,100104.00
2023-03-05T03:56:55.155Z,100097.00
2023-03-05T03:59:22.886Z,100093.00
2023-03-05T04:01:50.790Z,100094.00
2023-03-05T04:04:18.472Z,100087.00
2023-03-05T04:06:46.225Z,100082.00
2023-03-05T04:09:14.153Z,100082.00
2023-03-05T04:11:42.005Z,100078.00
2023-03-05T04:14:09.948Z,100081.00
2023-03-05T04:16:37.538Z,100079.00
2023-03-05T04:19:05.233Z,100074.00
2023-03-05T04:21:33.006Z,100074.00
2023-03-05T04:24:03.383Z,100066.00
2023-03-05T04:26:31.132Z,100068.00
2023-03-05T04:28:58.795Z,100063.00
2023-03-05T04:31:26.572Z,100070.00
2023-03-05T04:33:54.393Z,100061.00
2023-03-05T04:36:22.166Z,100058.00
2023-03-05T04:38:52.197Z,100060.00
2023-03-05T04:41:19.886Z,100056.00
2023-03-05T04:43:47.540Z,100058.00
2023-03-05T04:46:15.465Z,100050.00
2023-03-05T04:48:43.098Z,100049.00
2023-03-05T04:51:10.862Z,100053.00
2023-03-05T04:53:38.426Z,100038.00
2023-03-05T04:56:06.430Z,100045.00
2023-03-05T04:58:34.398Z,100037.00
2023-03-05T05:01:02.755Z,100038.00
2023-03-05T05:03:30.543Z,100045.00
2023-03-05T05:05:58.610Z,100038.00
2023-03-05T05:08:28.993Z,100042.00
2023-03-05T05:10:57.764Z,100043.00
2023-03-05T05:13:25.813Z,100032.00
2023-03-05T05:15:53.531Z,100038.00
2023-03-05T05:18:21.145Z,100034.00
2023-03-05T05:20:48.960Z,100030.00
2023-03-05T05:23:16.689Z,100029.00
2023-03-05T05:25:44.341Z,100030.00
2023-03-05T05:28:11.927Z,100028.00
2023-03-05T05:30:39.768Z,100028.00
2023-03-05T05:33:07.496Z,100016.00
2023-03-05T05:35:35.340Z,100014.00
2023-03-05T05:38:03.042Z,100016.00
2023-03-05T05:40:30.680Z,100012.00
2023-03-05T05:42:58.559Z,100015.00
2023-03-05T05:45:26.355Z,100014.00
2023-03-05T05:47:54.255Z,100010.00
2023-03-05T05:50:24.909Z,100013.00
2023-03-05T05:52:52.847Z,100008.00
2023-03-05T05:55:20.673Z,100007.00
2023-03-05T05:57:48.440Z,100000.00
2023-03-05T06:00:16.399Z,99998.00
2023-03-05T06:02:44.127Z,100003.00
2023-03-05T06:05:12.688Z,100004.00
2023-03-05T06:07:40.490Z,99996.00
2023-03-05T06:10:08.856Z,100002.00
2023-03-05T06:12:36.532Z,100013.00
2023-03-05T06:15:04.807Z,100009.00
2023-03-05T06:17:32.350Z,100006.00
2023-03-05T06:20:01.357Z,100015.00
2023-03-05T06:22:29.045Z,100008.00
2023-03-05T06:24:56.863Z,100012.00
2023-03-05T06:27:24.632Z,100002.00
2023-03-05T06:29:53.069Z,100010.00
2023-03-05T06:32:21.107Z,100008.00
2023-03-05T06:34:49.152Z,100008.00
2023-03-05T06:37:17.013Z,100006.00
2023-03-05T06:39:44.994Z,100013.00
2023-03-05T06:42:14.635Z,100017.00
2023-03-05T06:44:42.322Z,100005.00
2023-03-05T06:47:13.073Z,100007.00
2023-03-05T06:49:40.913Z,100008.00
2023-03-05T06:52:10.456Z,100005.00
2023-03-05T06:54:41.110Z,99995.00
2023-03-05T06:57:10.589Z,100000.00
2023-03-05T06:59:38.384Z,99999.00
2023-03-05T07:02:10.317Z,100003.00
2023-03-05T07:04:38.237Z,100007.00
2023-03-05T07:07:06.058Z,99994.00
2023-03-05T07:09:33.532Z,99993.00
2023-03-05T07:12:01.198Z,99991.00
2023-03-05T07:14:28.704Z,100003.00
2023-03-05T07:16:56.354Z,99990.00
2023-03-05T07:19:24.139Z,99997.00
2023-03-05T07:21:51.797Z,99996.00
2023-03-05T07:24:19.388Z,99997.00
2023-03-05T07:26:48.910Z,99988.00
2023-03-05T07:29:16.816Z,99991.00
2023-03-05T07:31:44.604Z,99988.00
2023-03-05T07:34:12.424Z,99991.00
2023-03-05T07:36:40.835Z,99981.00
2023-03-05T07:39:08.825Z,99973.00
2023-03-05T07:41:36.593Z,99979.00
2023-03-05T07:44:04.334Z,99976.00
2023-03-05T07:46:33.123Z,99980.00
2023-03-05T07:49:00.973Z,99978.00
2023-03-05T07:51:29.064Z,99970.00
2023-03-05T07:53:57.736Z,99967.00
2023-03-05T07:56:34.539Z,99958.00
2023-03-05T07:59:03.219Z,99966.00
2023-03-05T08:01:31.369Z,99969.00
2023-03-05T08:03:58.983Z,99973.00
2023-03-05T08:06:26.632Z,99965.00
2023-03-05T08:08:54.385Z,99970.00
2023-03-05T08:11:22.334Z,99968.00
2023-03-05T08:13:50.616Z,99974.00
2023-03-05T08:16:19.768Z,99970.00
2023-03-05T08:18:47.868Z,99970.00
2023-03-05T08:21:35.749Z,99968.00
2023-03-05T08:24:04.466Z,99961.00
2023-03-05T08:26:32.633Z,99967.00
2023-03-05T08:29:00.739Z,99968.00
2023-03-05T08:31:33.024Z,99966.00
2023-03-05T08:34:01.211Z,99959.00
2023-03-05T08:36:29.175Z,99955.00
2023-03-05T08:38:56.965Z,99967.00
2023-03-05T08:41:24.798Z,99954.00
2023-03-05T08:43:52.469Z,99956.00
2023-03-05T08:46:20.485Z,99942.00
2023-03-05T08:48:51.225Z,99946.00
2023-03-05T08:51:20.440Z,99949.00
2023-03-05T08:53:51.228Z,99930.00
2023-03-05T08:56:18.983Z,99939.00
2023-03-05T08:58:47.463Z,99934.00
2023-03-05T09:01:15.416Z,99941.00
2023-03-05T09:03:43.177Z,99934.00
2023-03-05T09:06:12.660Z,99935.00
2023-03-05T09:08:40.794Z,99931.00
2023-03-05T09:11:09.473Z,99945.00
2023-03-05T09:13:37.260Z,99943.00
2023-03-05T09:16:09.059Z,99934.00
2023-03-05T09:18:37.099Z,99936.00
2023-03-05T09:21:06.212Z,99940.00
2023-03-05T09:23:34.249Z,99944.00
2023-03-05T09:26:02.543Z,99938.00
2023-03-05T09:28:33.041Z,99933.00
2023-03-05T09:31:04.392Z,99931.00
2023-03-05T09:33:32.787Z,99923.00
2023-03-05T09:36:01.019Z,99921.00
2023-03-05T09:38:29.241Z,99929.00
2023-03-05T09:41:02.567Z,99932.00
2023-03-05T09:43:36.190Z,99924.00
2023-03-05T09:46:18.777Z,99933.00
2023-03-05T09:49:01.299Z,99922.00
2023-03-05T09:51:30.348Z,99924.00
2023-03-05T09:54:02.802Z,99921.00
2023-03-05T09:56:37.239Z,99905.00
2023-03-05T09:59:16.865Z,99908.00
2023-03-05T10:01:44.666Z,99908.00
2023-03-05T10:04:18.683Z,99911.00
2023-03-05T10:06:50.835Z,99918.00
2023-03-05T10:09:31.054Z,99904.00
2023-03-05T10:12:03.945Z,99918.00
2023-03-05T10:14:33.759Z,99911.00
2023-03-05T10:17:20.264Z,99916.00
2023-03-05T10:19:48.059Z,99901.00
2023-03-05T10:22:18.879Z,99899.00
2023-03-05T10:25:05.172Z,99899.00
2023-03-05T10:27:54.097Z,99906.00
2023-03-05T10:30:24.390Z,99905.00
2023-03-05T10:33:10.868Z,99903.00
2023-03-05T10:35:57.326Z,99904.00
2023-03-05T10:38:28.185Z,99891.00
2023-03-05T10:40:55.953Z,99891.00
2023-03-05T10:43:38.929Z,99892.00
2023-03-05T10:46:06.660Z,99879.00
2023-03-05T10:48:45.604Z,99890.00
2023-03-05T10:51:19.332Z,99885.00
2023-03-05T10:53:56.320Z,99884.00
2023-03-05T10:56:25.488Z,99885.00
2023-03-05T10:58:53.875Z,99884.00
2023-03-05T11:01:25.534Z,99875.00
2023-03-05T11:04:06.447Z,99873.00
2023-03-05T11:06:59.207Z,99867.00
2023-03-05T11:09:32.648Z,99875.00
2023-03-05T11:12:06.001Z,99871.00
2023-03-05T11:14:33.783Z,99868.00
2023-03-05T11:17:01.911Z,99864.00
2023-03-05T11:19:33.021Z,99872.00
2023-03-05T11:22:08.026Z,99878.00
2023-03-05T11:24:35.867Z,99880.00
2023-03-05T11:27:21.328Z,99872.00
2023-03-05T11:29:49.174Z,99867.00
2023-03-05T11:32:19.889Z,99859.00
2023-03-05T11:34:48.299Z,99846.00
2023-03-05T11:37:26.569Z,99849.00
2023-03-05T11:40:12.688Z,99846.00
2023-03-05T11:42:40.496Z,99848.00
2023-03-05T11:45:11.264Z,99833.00
2023-03-05T11:47:47.235Z,99834.00
2023-03-05T11:50:21.189Z,99831.00
2023-03-05T11:52:56.335Z,99822.00
2023-03-05T11:55:26.839Z,99819.00
2023-03-05T11:57:57.721Z,99817.00
2023-03-05T12:00:28.594Z,99804.00
2023-03-05T12:02:57.405Z,99812.00
2023-03-05T12:05:25.141Z,99805.00
2023-03-05T12:07:53.961Z,99798.00
2023-03-05T12:10:22.981Z,99790.00
2023-03-05T12:12:56.931Z,99797.00
2023-03-05T12:15:27.686Z,99789.00
2023-03-05T12:17:58.630Z,99784.00
2023-03-05T12:20:45.100Z,99783.00
2023-03-05T12:23:22.454Z,99781.00
2023-03-05T12:25:51.418Z,99771.00
2023-03-05T12:28:31.064Z,99769.00
2023-03-05T12:30:59.819Z,99758.00
2023-03-05T12:33:30.467Z,99756.00
2023-03-05T12:36:30.889Z,99752.00
2023-03-05T12:38:58.646Z,99748.00
2023-03-05T12:41:28.057Z,99746.00
2023-03-05T12:44:05.152Z,99739.00
2023-03-05T12:46:36.309Z,99744.00
2023-03-05T12:49:19.357Z,99745.00
2023-03-05T12:51:47.645Z,99741.00
2023-03-05T12:54:28.036Z,99741.00
2023-03-05T12:56:57.502Z,99734.00
2023-03-05T12:59:31.828Z,99744.00
2023-03-05T13:02:01.311Z,99741.00
2023-03-05T13:04:32.591Z,99733.00
2023-03-05T13:07:01.556Z,99738.00
2023-03-05T13:09:31.652Z,99730.00
2023-03-05T13:11:59.631Z,99728.00
2023-03-05T13:14:43.509Z,99726.00
2023-03-05T13:17:38.470Z,99735.00
2023-03-05T13:20:29.440Z,99729.00
2023-03-05T13:23:23.257Z,99728.00
2023-03-05T13:26:00.229Z,99725.00
2023-03-05T13:28:28.313Z,99720.00
2023-03-05T13:31:00.170Z,99726.00
2023-03-05T13:33:29.989Z,99719.00
2023-03-05T13:35:57.977Z,99714.00
2023-03-05T13:38:29.962Z,99711.00
2023-03-05T13:41:01.752Z,99707.00
2023-03-05T13:43:29.554Z,99700.00
2023-03-05T13:45:58.334Z,99699.00
2023-03-05T13:48:26.798Z,99688.00
2023-03-05T13:50:58.208Z,99700.00
2023-03-05T13:53:27.224Z,99697.00
2023-03-05T13:55:57.707Z,99697.00
2023-03-05T13:58:41.457Z,99695.00
2023-03-05T14:01:22.113Z,99682.00
2023-03-05T14:03:51.019Z,99681.00
2023-03-05T14:06:21.585Z,99673.00
2023-03-05T14:09:03.353Z,99669.00
2023-03-05T14:11:31.097Z,99664.00
2023-03-05T14:14:01.037Z,99659.00
2023-03-05T14:16:32.961Z,99657.00
2023-03-05T14:19:01.889Z,99653.00
2023-03-05T14:21:43.355Z,99649.00
2023-03-05T14:24:21.702Z,99643.00
2023-03-05T14:26:58.980Z,99641.00
2023-03-05T14:29:27.126Z,99638.00
2023-03-05T14:32:04.085Z,99640.00
2023-03-05T14:34:39.460Z,99636.00
2023-03-05T14:37:08.199Z,99636.00
2023-03-05T14:39:40.857Z,99637.00
2023-03-05T14:42:27.601Z,99646.00
2023-03-05T14:44:56.076Z,99628.00
2023-03-05T14:47:24.286Z,99625.00
2023-03-05T14:49:52.061Z,99618.00
2023-03-05T14:52:20.836Z,99613.00
2023-03-05T14:54:48.556Z,99610.00
2023-03-05T14:57:20.451Z,99606.00
2023-03-05T14:59:48.163Z,99608.00
2023-03-05T15:02:19.011Z,99594.00
2023-03-05T15:04:47.065Z,99593.00
2023-03-05T15:07:27.925Z,99591.00
2023-03-05T15:09:55.721Z,99587.00
2023-03-05T15:12:26.089Z,99579.00
2023-03-05T15:14:54.360Z,99584.00
2023-03-05T15:17:23.394Z,99578.00
2023-03-05T15:19:51.062Z,99572.00
2023-03-05T15:22:18.674Z,99579.00
2023-03-05T15:24:46.476Z,99564.00
2023-03-05T15:27:14.866Z,99563.00
2023-03-05T15:29:42.758Z,99563.00
2023-03-05T15:32:13.674Z,99557.00
2023-03-05T15:34:41.481Z,99564.00
2023-03-05T15:37:09.344Z,99554.00
2023-03-05T15:39:37.250Z,99556.00
2023-03-05T15:42:06.379Z,99553.00
2023-03-05T15:44:34.298Z,99552.00
2023-03-05T15:47:02.055Z,99550.00
2023-03-05T15:49:29.820Z,99546.00
2023-03-05T15:51:57.651Z,99549.00
2023-03-05T15:54:25.372Z,99536.00
2023-03-05T15:56:55.428Z,99541.00
2023-03-05T15:59:23.108Z,99539.00
2023-03-05T16:01:52.053Z,99539.00
2023-03-05T16:04:19.776Z,99541.00
2023-03-05T16:06:47.859Z,99540.00
2023-03-05T16:09:15.592Z,99539.00
2023-03-05T16:11:48.222Z,99536.00
2023-03-05T16:14:17.491Z,99535.00
2023-03-05T16:16:45.363Z,99529.00
2023-03-05T16:19:13.628Z,99528.00
2023-03-05T16:21:41.355Z,99533.00
2023-03-05T16:24:09.354Z,99522.00
2023-03-05T16:26:39.676Z,99517.00
2023-03-05T16:29:07.502Z,99518.00
2023-03-05T16:31:35.773Z,99519.00
2023-03-05T16:34:03.789Z,99526.00
2023-03-05T16:36:31.776Z,99509.00
2023-03-05T16:38:59.921Z,99525.00
2023-03-05T16:41:27.910Z,99510.00
2023-03-05T16:43:58.647Z,99507.00
2023-03-05T16:46:27.838Z,99512.00
2023-03-05T16:48:55.724Z,99514.00
2023-03-05T16:51:23.638Z,99499.00
2023-03-05T16:53:51.286Z,99501.00
2023-03-05T16:56:18.931Z,99507.00
2023-03-05T16:58:46.606Z,99502.00
2023-03-05T17:01:15.419Z,99503.00
2023-03-05T17:03:43.775Z,99502.00
2023-03-05T17:06:16.023Z,99506.00
2023-03-05T17:08:43.928Z,99501.00
2023-03-05T17:11:12.543Z,99507.00
2023-03-05T17:13:40.612Z,99509.00
2023-03-05T17:16:08.950Z,99504.00
2023-03-05T17:18:36.896Z,99506.00
2023-03-05T17:21:08.113Z,99504.00
2023-03-05T17:23:36.624Z,99495.00
2023-03-05T17:26:08.207Z,99498.00
2023-03-05T17:28:35.950Z,99502.00
2023-03-05T17:31:05.705Z,99498.00
2023-03-05T17:33:35.624Z,99488.00
2023-03-05T17:36:03.275Z,99491.00
2023-03-05T17:38:30.887Z,99498.00
2023-03-05T17:40:58.539Z,99490.00
2023-03-05T17:43:26.242Z,99492.00
2023-03-05T17:45:53.925Z,99493.00
2023-03-05T17:48:21.474Z,99491.00
2023-03-05T17:50:49.123Z,99489.00
2023-03-05T17:53:16.860Z,99489.00
2023-03-05T17:55:44.527Z,99496.00
2023-03-05T17:58:14.512Z,99489.00
2023-03-05T18:00:42.097Z,99494.00
2023-03-05T18:03:09.758Z,99490.00
2023-03-05T18:05:37.512Z,99479.00
2023-03-05T18:08:05.461Z,99487.00
2023-03-05T18:10:33.611Z,99483.00
2023-03-05T18:13:01.755Z,99482.00
2023-03-05T18:15:30.044Z,99486.00
2023-03-05T18:17:58.725Z,99489.00
2023-03-05T18:20:30.544Z,99480.00
2023-03-05T18:23:01.611Z,99477.00
2023-03-05T18:25:32.345Z,99472.00
2023-03-05T18:28:03.998Z,99467.00
2023-03-05T18:30:31.918Z,99467.00
2023-03-05T18:33:00.260Z,99467.00
2023-03-05T18:35:29.459Z,99465.00
2023-03-05T18:37:59.143Z,99466.00
2023-03-05T18:40:30.078Z,99464.00
2023-03-05T18:42:59.113Z,99458.00
2023-03-05T18:45:30.188Z,99449.00
2023-03-05T18:47:58.050Z,99455.00
2023-03-05T18:50:29.625Z,99456.00
2023-03-05T18:52:59.094Z,99462.00
2023-03-05T18:55:28.263Z,99459.00
2023-03-05T18:57:56.063Z,99455.00
2023-03-05T19:00:27.722Z,99457.00
2023-03-05T19:02:55.515Z,99455.00
2023-03-05T19:05:23.343Z,99452.00
2023-03-05T19:07:51.062Z,99444.00
2023-03-05T19:10:22.846Z,99449.00
2023-03-05T19:12:58.006Z,99444.00
2023-03-05T19:15:25.806Z,99441.00
2023-03-05T19:17:55.158Z,99447.00
2023-03-05T19:20:22.972Z,99448.00
2023-03-05T19:22:55.873Z,99441.00
2023-03-05T19:25:23.605Z,99437.00
2023-03-05T19:27:51.636Z,99440.00
2023-03-05T19:30:19.491Z,99441.00
2023-03-05T19:32:47.501Z,99442.00
2023-03-05T19:35:16.540Z,99445.00
2023-03-05T19:37:46.258Z,99442.00
2023-03-05T19:40:14.609Z,99443.00
2023-03-05T19:42:42.321Z,99445.00
2023-03-05T19:45:10.322Z,99437.00
2023-03-05T19:47:37.981Z,99447.00
2023-03-05T19:50:06.210Z,99437.00
2023-03-05T19:52:33.902Z,99437.00
2023-03-05T19:55:01.630Z,99432.00
2023-03-05T19:57:29.562Z,99429.00
2023-03-05T19:59:57.125Z,99428.00
2023-03-05T20:02:26.409Z,99432.00
2023-03-05T20:04:54.874Z,99427.00
2023-03-05T20:07:22.613Z,99423.00
2023-03-05T20:09:52.073Z,99411.00
2023-03-05T20:12:19.663Z,99413.00
2023-03-05T20:14:47.362Z,99408.00
2023-03-05T20:17:15.314Z,99405.00
2023-03-05T20:19:43.006Z,99400.00
2023-03-05T20:22:10.757Z,99392.00
2023-03-05T20:24:38.524Z,99399.00
2023-03-05T20:27:06.302Z,99401.00
2023-03-05T20:29:34.000Z,99393.00
2023-03-05T20:32:02.353Z,99392.00
2023-03-05T20:34:31.363Z,99394.00
2023-03-05T20:36:59.601Z,99388.00
2023-03-05T20:39:27.443Z,99401.00
2023-03-05T20:41:55.053Z,99396.00
2023-03-05T20:44:22.859Z,99386.00
2023-03-05T20:47:02.976Z,99388.00
2023-03-05T20:49:30.975Z,99385.00
2023-03-05T20:52:01.172Z,99385.00
2023-03-05T20:54:28.893Z,99376.00
2023-03-05T20:56:56.638Z,99371.00
2023-03-05T20:59:24.867Z,99360.00
2023-03-05T21:01:52.539Z,99364.00
2023-03-05T21:04:20.241Z,99372.00
2023-03-05T21:06:52.632Z,99370.00
2023-03-05T21:09:20.281Z,99365.00
2023-03-05T21:11:47.859Z,99365.00
2023-03-05T21:14:15.529Z,99367.00
2023-03-05T21:16:43.380Z,99359.00
2023-03-05T21:19:11.254Z,99357.00
2023-03-05T21:21:39.395Z,99357.00
2023-03-05T21:24:07.186Z,99354.00
2023-03-05T21:26:35.036Z,99345.00
2023-03-05T21:29:03.228Z,99358.00
2023-03-05T21:31:31.037Z,99358.00
2023-03-05T21:33:58.690Z,99347.00
2023-03-05T21:36:26.261Z,99351.00
2023-03-05T21:38:53.999Z,99350.00
2023-03-05T21:41:23.246Z,99344.00
2023-03-05T21:43:51.189Z,99347.00
2023-03-05T21:46:18.933Z,99341.00
2023-03-05T21:48:46.690Z,99343.00
2023-03-05T21:51:14.457Z,99342.00
2023-03-05T21:53:42.209Z,99332.00
2023-03-05T21:56:13.021Z,99333.00
2023-03-05T21:58:40.693Z,99327.00
2023-03-05T22:01:10.540Z,99320.00
2023-03-05T22:03:38.409Z,99329.00
2023-03-05T22:06:12.369Z,99317.00
2023-03-05T22:08:40.210Z,99320.00
2023-03-05T22:11:09.026Z,99318.00
2023-03-05T22:13:37.061Z,99307.00
2023-03-05T22:16:07.119Z,99306.00
2023-03-05T22:18:35.026Z,99304.00
2023-03-05T22:21:03.610Z,99294.00
2023-03-05T22:23:31.851Z,99292.00
2023-03-05T22:26:03.923Z,99283.00
2023-03-05T22:28:31.813Z,99288.00
2023-03-05T22:30:59.522Z,99285.00
2023-03-05T22:33:27.610Z,99276.00
2023-03-05T22:35:55.311Z,99274.00
2023-03-05T22:38:23.304Z,99267.00
2023-03-05T22:40:51.336Z,99266.00
2023-03-05T22:43:19.525Z,99269.00
2023-03-05T22:45:47.361Z,99270.00
2023-03-05T22:48:15.130Z,99269.00
2023-03-05T22:50:44.134Z,99265.00
2023-03-05T22:53:12.357Z,99261.00
2023-03-05T22:55:40.700Z,99255.00
2023-03-05T22:58:08.536Z,99261.00
2023-03-05T23:00:36.432Z,99257.00
2023-03-05T23:03:04.103Z,99262.00
2023-03-05T23:05:31.921Z,99266.00
2023-03-05T23:07:59.603Z,99261.00
2023-03-05T23:10:28.819Z,99254.00
2023-03-05T23:12:59.416Z,99257.00
2023-03-05T23:15:31.855Z,99250.00
2023-03-05T23:17:59.559Z,99248.00
2023-03-05T23:20:28.533Z,99252.00
2023-03-05T23:22:56.404Z,99244.00
2023-03-05T23:25:24.889Z,99244.00
2023-03-05T23:27:52.672Z,99236.00
2023-03-05T23:30:21.231Z,99238.00
2023-03-05T23:33:05.209Z,99238.00
2023-03-05T23:35:34.359Z,99236.00
2023-03-05T23:38:03.171Z,99232.00
2023-03-05T23:40:32.238Z,99223.00
2023-03-05T23:43:00.119Z,99226.00
2023-03-05T23:45:27.966Z,99222.00
2023-03-05T23:47:55.750Z,99219.00
2023-03-05T23:50:24.828Z,99218.00
2023-03-05T23:52:54.246Z,99216.00
2023-03-05T23:55:24.524Z,99211.00
2023-03-05T23:57:52.714Z,99210.00
